createdAt,value
2018-09-13T00:00:49.005Z,17.83
2018-09-13T00:05:52.124Z,17.64
2018-09-13T00:10:55.202Z,17.74
2018-09-13T00:15:59.229Z,17.79
2018-09-13T00:21:02.359Z,17.78
2018-09-13T00:26:08.250Z,17.75
2018-09-13T00:31:12.213Z,17.81
2018-09-13T00:36:16.437Z,17.74
2018-09-13T00:41:19.800Z,17.60
2018-09-13T00:46:22.824Z,17.54
2018-09-13T00:51:26.484Z,17.57
2018-09-13T00:56:29.722Z,17.57
2018-09-13T01:01:32.858Z,17.52
2018-09-13T01:06:39.499Z,17.54
2018-09-13T01:11:43.402Z,17.64
2018-09-13T01:16:47.552Z,17.66
2018-09-13T01:21:50.638Z,17.75
2018-09-13T01:26:53.702Z,17.77
2018-09-13T01:31:57.859Z,17.71
2018-09-13T01:37:01.203Z,17.78
2018-09-13T01:42:05.704Z,17.78
2018-09-13T01:47:11.351Z,17.78
2018-09-13T01:52:14.778Z,17.76
2018-09-13T01:57:17.868Z,17.76
2018-09-13T02:02:21.019Z,17.85
2018-09-13T02:07:24.115Z,17.91
2018-09-13T02:12:27.193Z,17.93
2018-09-13T02:17:30.223Z,17.90
2018-09-13T02:22:34.895Z,17.91
2018-09-13T02:27:39.772Z,17.93
2018-09-13T02:32:43.971Z,17.88
2018-09-13T02:37:48.038Z,17.87
2018-09-13T02:42:51.195Z,17.92
2018-09-13T02:47:54.283Z,17.94
2018-09-13T02:52:57.386Z,17.96
2018-09-13T02:58:01.946Z,17.95
2018-09-13T03:03:10.080Z,17.93
2018-09-13T03:08:14.561Z,17.95
2018-09-13T03:13:17.987Z,18.00
2018-09-13T03:18:21.071Z,18.02
2018-09-13T03:23:24.146Z,18.01
2018-09-13T03:28:27.258Z,17.76
2018-09-13T03:33:31.411Z,17.56
2018-09-13T03:38:35.888Z,17.48
2018-09-13T03:43:41.410Z,17.32
2018-09-13T03:48:45.097Z,17.23
2018-09-13T03:53:48.091Z,17.17
2018-09-13T03:58:55.477Z,17.17
2018-09-13T04:04:00.874Z,17.16
2018-09-13T04:09:09.125Z,17.18
2018-09-13T04:14:13.573Z,17.18
2018-09-13T04:19:18.645Z,17.10
2018-09-13T04:24:23.520Z,17.08
2018-09-13T04:29:27.005Z,17.00
2018-09-13T04:34:30.464Z,17.13
2018-09-13T04:39:33.743Z,17.26
2018-09-13T04:44:37.590Z,17.21
2018-09-13T04:49:41.065Z,17.20
2018-09-13T04:54:45.504Z,17.23
2018-09-13T04:59:48.893Z,17.31
2018-09-13T05:04:52.564Z,17.35
2018-09-13T05:09:56.741Z,17.37
2018-09-13T05:15:00.109Z,17.33
2018-09-13T05:20:04.162Z,17.34
2018-09-13T05:25:07.874Z,17.27
2018-09-13T05:30:11.559Z,17.26
2018-09-13T05:35:15.248Z,17.22
2018-09-13T05:40:18.739Z,17.23
2018-09-13T05:45:21.962Z,17.13
2018-09-13T05:50:25.576Z,17.08
2018-09-13T05:55:28.861Z,17.19
2018-09-13T06:00:32.955Z,17.20
2018-09-13T06:05:36.421Z,17.27
2018-09-13T06:10:40.258Z,17.20
2018-09-13T06:15:43.721Z,17.21
2018-09-13T06:20:47.039Z,17.22
2018-09-13T06:25:50.186Z,17.25
2018-09-13T06:30:53.280Z,17.42
2018-09-13T06:35:56.320Z,17.43
2018-09-13T06:41:00.664Z,17.46
2018-09-13T06:46:06.559Z,17.50
2018-09-13T06:51:11.964Z,17.40
2018-09-13T06:56:15.808Z,17.41
2018-09-13T07:01:20.632Z,17.40
2018-09-13T07:06:23.751Z,17.39
2018-09-13T07:11:27.130Z,17.32
2018-09-13T07:16:36.021Z,17.34
2018-09-13T07:21:41.281Z,17.40
2018-09-13T07:26:44.584Z,17.33
2018-09-13T07:31:48.985Z,17.49
2018-09-13T07:36:52.405Z,17.67
2018-09-13T07:41:55.455Z,17.70
2018-09-13T07:46:59.844Z,17.86
2018-09-13T07:52:08.295Z,17.83
2018-09-13T07:57:14.225Z,17.71
2018-09-13T08:02:17.650Z,17.77
2018-09-13T08:07:20.990Z,17.72
2018-09-13T08:12:24.371Z,17.65
2018-09-13T08:17:27.955Z,17.84
2018-09-13T08:22:41.515Z,17.82
2018-09-13T08:27:45.333Z,17.91
2018-09-13T08:32:48.693Z,18.01
2018-09-13T08:37:52.112Z,18.05
2018-09-13T08:42:55.412Z,17.89
2018-09-13T08:47:58.805Z,17.52
2018-09-13T08:53:07.119Z,17.32
2018-09-13T08:58:11.729Z,17.54
2018-09-13T09:03:15.160Z,17.67
2018-09-13T09:08:18.496Z,17.78
2018-09-13T09:13:21.906Z,18.07
2018-09-13T09:18:25.292Z,18.19
2018-09-13T09:23:28.669Z,18.62
2018-09-13T09:28:34.682Z,18.97
2018-09-13T09:33:39.737Z,19.30
2018-09-13T09:38:43.795Z,19.53
2018-09-13T09:43:47.156Z,19.72
2018-09-13T09:48:50.505Z,19.74
2018-09-13T09:53:53.842Z,19.58
2018-09-13T09:58:57.224Z,19.48
2018-09-13T10:04:03.885Z,19.52
2018-09-13T10:09:09.592Z,19.40
2018-09-13T10:14:13.778Z,19.73
2018-09-13T10:19:23.004Z,19.89
2018-09-13T10:24:32.164Z,19.82
2018-09-13T10:29:42.721Z,19.87
2018-09-13T10:34:51.536Z,19.77
2018-09-13T10:40:01.493Z,20.43
2018-09-13T10:45:11.357Z,20.68
2018-09-13T10:50:20.272Z,20.57
2018-09-13T10:55:23.752Z,21.05
2018-09-13T11:00:27.324Z,21.19
2018-09-13T11:05:35.189Z,21.26
2018-09-13T11:10:40.782Z,21.31
2018-09-13T11:15:44.171Z,20.86
2018-09-13T11:20:47.478Z,21.25
2018-09-13T11:25:50.846Z,20.99
2018-09-13T11:31:00.459Z,21.25
2018-09-13T11:36:08.383Z,20.89
2018-09-13T11:41:12.770Z,20.88
2018-09-13T11:46:16.918Z,21.14
2018-09-13T11:51:27.028Z,21.26
2018-09-13T11:56:32.252Z,21.13
2018-09-13T12:01:36.863Z,21.60
2018-09-13T12:06:41.107Z,21.64
2018-09-13T12:11:45.412Z,21.57
2018-09-13T12:16:48.542Z,22.37
2018-09-13T12:21:51.710Z,22.59
2018-09-13T12:26:54.761Z,22.17
2018-09-13T12:31:59.061Z,21.91
2018-09-13T12:37:04.113Z,21.89
2018-09-13T12:42:11.353Z,22.08
2018-09-13T12:47:15.902Z,22.55
2018-09-13T12:52:18.979Z,22.50
2018-09-13T12:57:21.985Z,22.59
2018-09-13T13:02:25.051Z,23.01
2018-09-13T13:07:28.489Z,22.73
2018-09-13T13:12:37.106Z,22.01
2018-09-13T13:17:41.697Z,21.57
2018-09-13T13:22:45.340Z,22.14
2018-09-13T13:27:48.657Z,22.94
2018-09-13T13:32:53.115Z,22.87
2018-09-13T13:37:56.951Z,22.77
2018-09-13T13:43:01.380Z,23.19
2018-09-13T13:48:05.620Z,23.13
2018-09-13T13:53:10.102Z,22.55
2018-09-13T13:58:13.782Z,22.12
2018-09-13T14:03:17.100Z,22.88
2018-09-13T14:08:20.476Z,22.68
2018-09-13T14:13:24.565Z,21.96
2018-09-13T14:18:30.727Z,21.99
2018-09-13T14:23:37.459Z,22.03
2018-09-13T14:28:42.160Z,22.12
2018-09-13T14:33:46.327Z,21.85
2018-09-13T14:38:49.973Z,21.64
2018-09-13T14:43:53.326Z,21.88
2018-09-13T14:48:56.659Z,22.32
2018-09-13T14:54:02.540Z,22.77
2018-09-13T14:59:08.624Z,22.47
2018-09-13T15:04:13.221Z,21.80
2018-09-13T15:09:16.297Z,21.53
2018-09-13T15:14:19.313Z,21.62
2018-09-13T15:19:22.325Z,21.74
2018-09-13T15:24:25.512Z,22.10
2018-09-13T15:29:33.741Z,22.11
2018-09-13T15:34:39.626Z,22.19
2018-09-13T15:39:44.363Z,21.92
2018-09-13T15:44:47.783Z,21.77
2018-09-13T15:49:51.218Z,21.66
2018-09-13T15:54:54.265Z,21.95
2018-09-13T15:59:57.694Z,22.06
2018-09-13T16:05:01.067Z,21.85
2018-09-13T16:10:04.416Z,21.63
2018-09-13T16:15:07.509Z,21.80
2018-09-13T16:20:10.629Z,21.50
2018-09-13T16:25:13.706Z,21.42
2018-09-13T16:30:16.725Z,21.29
2018-09-13T16:35:22.658Z,21.38
2018-09-13T16:40:31.362Z,21.40
2018-09-13T16:45:35.875Z,21.22
2018-09-13T16:50:38.904Z,21.05
2018-09-13T16:55:42.013Z,20.89
2018-09-13T17:00:45.764Z,20.70
2018-09-13T17:05:50.146Z,20.56
2018-09-13T17:10:58.891Z,20.44
2018-09-13T17:16:03.761Z,20.33
2018-09-13T17:21:08.041Z,20.16
2018-09-13T17:26:11.090Z,19.98
2018-09-13T17:31:14.331Z,19.74
2018-09-13T17:36:17.402Z,19.61
2018-09-13T17:41:20.560Z,19.45
2018-09-13T17:46:28.075Z,19.27
2018-09-13T17:51:34.042Z,19.09
2018-09-13T17:56:38.162Z,18.96
2018-09-13T18:01:41.198Z,18.93
2018-09-13T18:06:44.513Z,18.92
2018-09-13T18:11:47.563Z,18.72
2018-09-13T18:17:03.185Z,18.59
2018-09-13T18:22:06.474Z,18.49
2018-09-13T18:27:11.581Z,18.35
2018-09-13T18:32:15.036Z,18.25
2018-09-13T18:37:20.513Z,18.22
2018-09-13T18:42:25.850Z,18.16
2018-09-13T18:47:31.224Z,18.05
2018-09-13T18:52:36.566Z,17.92
2018-09-13T18:57:40.418Z,17.86
2018-09-13T19:02:45.041Z,17.77
2018-09-13T19:07:49.512Z,17.60
2018-09-13T19:12:57.967Z,17.58
2018-09-13T19:18:02.787Z,17.40
2018-09-13T19:23:07.184Z,17.32
2018-09-13T19:28:10.364Z,17.19
2018-09-13T19:33:13.360Z,17.05
2018-09-13T19:38:16.455Z,16.88
2018-09-13T19:43:19.470Z,16.78
2018-09-13T19:48:23.596Z,16.82
2018-09-13T19:53:28.484Z,16.89
2018-09-13T19:58:32.549Z,16.80
2018-09-13T20:03:36.185Z,16.71
2018-09-13T20:08:39.176Z,16.64
2018-09-13T20:13:42.218Z,16.44
2018-09-13T20:18:45.603Z,16.40
2018-09-13T20:23:48.647Z,16.32
2018-09-13T20:28:53.401Z,16.27
2018-09-13T20:33:59.712Z,16.14
2018-09-13T20:39:05.763Z,15.99
2018-09-13T20:44:08.775Z,16.00
2018-09-13T20:49:11.877Z,15.96
2018-09-13T20:54:14.895Z,15.92
2018-09-13T20:59:18.421Z,15.91
2018-09-13T21:04:22.268Z,15.83
2018-09-13T21:09:27.777Z,15.76
2018-09-13T21:14:32.238Z,15.66
2018-09-13T21:19:36.304Z,15.55
2018-09-13T21:24:39.341Z,15.54
2018-09-13T21:29:42.413Z,15.50
2018-09-13T21:34:45.490Z,15.51
2018-09-13T21:39:48.531Z,15.36
2018-09-13T21:44:53.196Z,15.33
2018-09-13T21:49:59.484Z,15.34
2018-09-13T21:55:04.237Z,15.28
2018-09-13T22:00:10.210Z,15.19
2018-09-13T22:05:13.226Z,15.05
2018-09-13T22:10:16.309Z,14.98
2018-09-13T22:15:19.350Z,15.05
2018-09-13T22:20:26.857Z,15.03
2018-09-13T22:25:31.785Z,15.00
2018-09-13T22:30:36.056Z,14.93
2018-09-13T22:35:39.283Z,14.80
2018-09-13T22:40:42.473Z,14.76
2018-09-13T22:45:45.523Z,14.69
2018-09-13T22:50:50.268Z,14.63
2018-09-13T22:55:58.547Z,14.56
2018-09-13T23:01:03.159Z,14.55
2018-09-13T23:06:06.831Z,14.56
2018-09-13T23:11:09.907Z,14.55
2018-09-13T23:16:12.902Z,14.53
2018-09-13T23:21:15.950Z,14.44
2018-09-13T23:26:20.056Z,14.35
2018-09-13T23:31:27.898Z,14.23
2018-09-13T23:36:33.988Z,14.05
2018-09-13T23:41:39.286Z,13.97
2018-09-13T23:46:42.262Z,14.00
2018-09-13T23:51:45.282Z,14.07
2018-09-13T23:56:48.277Z,14.13
